createdAt,value
2023-05-14T00:02:04.043Z,72.05
2023-05-14T00:05:41.613Z,71.77
2023-05-14T00:09:19.927Z,71.34
2023-05-14T00:12:57.074Z,71.19
2023-05-14T00:16:34.668Z,70.98
2023-05-14T00:20:12.773Z,71.29
2023-05-14T00:23:50.028Z,71.26
2023-05-14T00:27:27.945Z,71.31
2023-05-14T00:31:05.294Z,71.05
2023-05-14T00:34:43.082Z,71.15
2023-05-14T00:38:21.159Z,71.23
2023-05-14T00:41:58.380Z,71.33
2023-05-14T00:45:36.138Z,71.56
2023-05-14T00:49:14.681Z,71.44
2023-05-14T00:52:51.352Z,71.56
2023-05-14T00:56:30.031Z,71.77
2023-05-14T01:00:07.730Z,71.68
2023-05-14T01:04:06.166Z,71.76
2023-05-14T01:07:53.311Z,71.90
2023-05-14T01:11:19.449Z,72.13
2023-05-14T01:14:49.310Z,71.93
2023-05-14T01:18:25.385Z,71.67
2023-05-14T01:22:01.492Z,71.99
2023-05-14T01:25:39.749Z,72.26
2023-05-14T01:29:22.757Z,71.86
2023-05-14T01:32:59.037Z,71.96
2023-05-14T01:36:33.748Z,72.28
2023-05-14T01:40:11.739Z,72.44
2023-05-14T01:43:48.113Z,72.54
2023-05-14T01:47:26.018Z,72.82
2023-05-14T01:51:04.246Z,72.71
2023-05-14T01:54:41.257Z,72.70
2023-05-14T01:58:18.858Z,72.63
2023-05-14T02:01:56.330Z,72.26
2023-05-14T02:05:33.926Z,72.08
2023-05-14T02:09:12.102Z,72.16
2023-05-14T02:12:49.734Z,71.88
2023-05-14T02:16:27.105Z,71.75
2023-05-14T02:20:05.038Z,71.88
2023-05-14T02:23:43.134Z,72.11
2023-05-14T02:27:19.952Z,72.21
2023-05-14T02:31:00.197Z,72.33
2023-05-14T02:34:35.798Z,72.65
2023-05-14T02:38:13.366Z,72.72
2023-05-14T02:41:50.623Z,72.58
2023-05-14T02:45:28.469Z,72.34
2023-05-14T02:49:06.499Z,72.28
2023-05-14T02:52:43.780Z,72.36
2023-05-14T02:56:21.412Z,72.49
2023-05-14T02:59:59.089Z,72.71
2023-05-14T03:03:36.797Z,73.10
2023-05-14T03:07:14.465Z,73.14
2023-05-14T03:10:52.011Z,73.17
2023-05-14T03:14:29.757Z,73.30
2023-05-14T03:18:07.541Z,73.60
2023-05-14T03:21:45.141Z,73.78
2023-05-14T03:25:22.582Z,73.65
2023-05-14T03:29:00.526Z,74.02
2023-05-14T03:32:38.317Z,74.12
2023-05-14T03:36:15.997Z,74.22
2023-05-14T03:39:53.284Z,74.56
2023-05-14T03:43:31.290Z,74.66
2023-05-14T03:47:08.685Z,74.91
2023-05-14T03:50:46.617Z,75.18
2023-05-14T03:54:23.911Z,75.42
2023-05-14T03:58:02.740Z,75.23
2023-05-14T04:01:39.216Z,75.42
2023-05-14T04:05:17.347Z,75.63
2023-05-14T04:08:54.890Z,75.56
2023-05-14T04:12:32.980Z,75.78
2023-05-14T04:16:10.431Z,75.84
2023-05-14T04:19:48.183Z,75.92
2023-05-14T04:23:25.774Z,76.19
2023-05-14T04:27:04.461Z,76.61
2023-05-14T04:30:40.747Z,76.40
2023-05-14T04:34:20.860Z,76.42
2023-05-14T04:37:56.088Z,76.53
2023-05-14T04:41:33.948Z,76.19
2023-05-14T04:45:13.626Z,76.20
2023-05-14T04:48:50.522Z,76.52
2023-05-14T04:52:26.997Z,76.20
2023-05-14T04:56:05.092Z,75.76
2023-05-14T04:59:42.518Z,75.79
2023-05-14T05:03:20.201Z,74.95
2023-05-14T05:06:57.693Z,73.93
2023-05-14T05:10:35.145Z,73.46
2023-05-14T05:14:12.915Z,72.80
2023-05-14T05:17:50.651Z,72.57
2023-05-14T05:21:28.277Z,72.19
2023-05-14T05:25:07.239Z,71.70
2023-05-14T05:28:43.515Z,71.25
2023-05-14T05:32:21.579Z,70.18
2023-05-14T05:35:58.911Z,69.77
2023-05-14T05:39:37.007Z,69.33
2023-05-14T05:43:15.717Z,68.85
2023-05-14T05:46:52.109Z,68.29
2023-05-14T05:50:31.865Z,67.87
2023-05-14T05:54:07.425Z,66.95
2023-05-14T05:57:45.131Z,66.24
2023-05-14T06:01:22.825Z,65.82
2023-05-14T06:05:00.546Z,64.77
2023-05-14T06:08:38.228Z,63.96
2023-05-14T06:12:16.224Z,63.03
2023-05-14T06:15:53.552Z,62.20
2023-05-14T06:19:32.250Z,61.54
2023-05-14T06:23:08.814Z,61.47
2023-05-14T06:26:46.464Z,61.39
2023-05-14T06:30:24.802Z,61.28
2023-05-14T06:34:01.896Z,60.83
2023-05-14T06:37:39.845Z,59.92
2023-05-14T06:41:17.709Z,60.40
2023-05-14T06:44:57.171Z,59.68
2023-05-14T06:48:33.012Z,59.57
2023-05-14T06:52:10.523Z,59.62
2023-05-14T06:55:48.885Z,59.63
2023-05-14T06:59:26.529Z,60.25
2023-05-14T07:03:03.492Z,59.88
2023-05-14T07:06:41.110Z,59.36
2023-05-14T07:10:19.104Z,58.78
2023-05-14T07:13:56.627Z,57.96
2023-05-14T07:17:34.307Z,57.24
2023-05-14T07:21:12.302Z,57.05
2023-05-14T07:24:50.242Z,57.03
2023-05-14T07:28:26.997Z,56.61
2023-05-14T07:32:04.978Z,57.11
2023-05-14T07:39:20.470Z,57.81
2023-05-14T07:42:59.239Z,57.55
2023-05-14T07:46:37.442Z,57.60
2023-05-14T07:50:22.619Z,57.31
2023-05-14T07:53:51.566Z,56.79
2023-05-14T07:57:28.356Z,57.08
2023-05-14T08:01:12.413Z,57.32
2023-05-14T08:05:03.966Z,57.30
2023-05-14T08:08:21.968Z,56.85
2023-05-14T08:12:01.539Z,57.15
2023-05-14T08:15:37.537Z,56.81
2023-05-14T08:19:17.438Z,56.48
2023-05-14T08:22:52.182Z,57.01
2023-05-14T08:26:29.742Z,56.79
2023-05-14T08:30:09.377Z,56.51
2023-05-14T08:33:52.046Z,56.42
2023-05-14T08:37:51.502Z,56.49
2023-05-14T08:41:01.073Z,56.16
2023-05-14T08:45:04.173Z,55.99
2023-05-14T08:48:23.114Z,55.79
2023-05-14T08:51:57.729Z,56.06
2023-05-14T08:55:37.792Z,55.84
2023-05-14T08:59:13.897Z,56.37
2023-05-14T09:02:52.095Z,56.23
2023-05-14T09:06:29.138Z,55.84
2023-05-14T09:10:06.961Z,56.09
2023-05-14T09:13:43.680Z,55.90
2023-05-14T09:17:21.450Z,56.15
2023-05-14T09:20:59.128Z,55.90
2023-05-14T09:24:36.532Z,55.86
2023-05-14T09:28:17.950Z,56.17
2023-05-14T09:31:52.635Z,56.54
2023-05-14T09:35:32.732Z,56.28
2023-05-14T09:39:10.618Z,56.40
2023-05-14T09:42:45.711Z,55.90
2023-05-14T09:46:32.562Z,56.16
2023-05-14T09:50:05.630Z,55.36
2023-05-14T09:53:41.643Z,55.45
2023-05-14T09:57:15.566Z,55.28
2023-05-14T10:00:54.749Z,55.39
2023-05-14T10:04:33.506Z,55.83
2023-05-14T10:08:20.065Z,55.82
2023-05-14T10:15:40.935Z,55.74
2023-05-14T10:19:08.122Z,56.10
2023-05-14T10:22:40.392Z,55.89
2023-05-14T10:26:17.903Z,56.56
2023-05-14T10:29:56.576Z,56.39
2023-05-14T10:33:48.366Z,56.09
2023-05-14T10:37:25.775Z,56.25
2023-05-14T10:40:48.512Z,56.47
2023-05-14T10:44:26.124Z,56.40
2023-05-14T10:48:03.490Z,56.60
2023-05-14T10:51:42.551Z,56.78
2023-05-14T10:55:19.104Z,56.57
2023-05-14T10:59:00.173Z,56.20
2023-05-14T11:02:40.601Z,56.25
2023-05-14T11:06:14.703Z,55.86
2023-05-14T11:09:51.546Z,55.68
2023-05-14T11:13:27.708Z,56.09
2023-05-14T11:17:06.822Z,56.10
2023-05-14T11:20:42.569Z,56.30
2023-05-14T11:24:20.089Z,56.26
2023-05-14T11:28:00.921Z,56.55
2023-05-14T11:31:36.039Z,56.29
2023-05-14T11:35:14.250Z,56.13
2023-05-14T11:38:52.501Z,54.87
2023-05-14T11:42:28.638Z,55.12
2023-05-14T11:46:06.504Z,55.39
2023-05-14T11:49:43.974Z,55.81
2023-05-14T11:53:31.141Z,55.95
2023-05-14T11:57:02.532Z,56.41
2023-05-14T12:00:38.248Z,56.98
2023-05-14T12:04:14.772Z,57.40
2023-05-14T12:07:52.650Z,57.94
2023-05-14T12:11:33.115Z,58.40
2023-05-14T12:15:13.516Z,58.73
2023-05-14T12:18:45.249Z,59.20
2023-05-14T12:22:23.585Z,59.67
2023-05-14T12:26:06.706Z,59.87
2023-05-14T12:29:39.128Z,59.94
2023-05-14T12:33:16.585Z,59.89
2023-05-14T12:37:12.506Z,59.78
2023-05-14T12:40:31.281Z,59.81
2023-05-14T12:44:09.866Z,59.62
2023-05-14T12:48:06.246Z,59.04
2023-05-14T12:51:24.435Z,59.43
2023-05-14T12:55:02.046Z,58.62
2023-05-14T12:58:40.149Z,58.69
2023-05-14T13:02:17.997Z,58.66
2023-05-14T13:05:55.447Z,58.76
2023-05-14T13:09:32.832Z,58.99
2023-05-14T13:13:11.998Z,58.71
2023-05-14T13:20:28.326Z,57.60
2023-05-14T13:24:03.490Z,57.52
2023-05-14T13:27:41.303Z,57.35
2023-05-14T13:31:18.502Z,57.34
2023-05-14T13:34:56.989Z,56.82
2023-05-14T13:38:34.800Z,56.77
2023-05-14T13:42:11.786Z,56.98
2023-05-14T13:45:51.516Z,56.89
2023-05-14T13:49:27.578Z,56.97
2023-05-14T13:53:05.047Z,57.01
2023-05-14T13:56:42.666Z,57.40
2023-05-14T14:00:20.165Z,57.62
2023-05-14T14:03:58.503Z,57.77
2023-05-14T14:07:35.699Z,58.21
2023-05-14T14:11:13.987Z,58.47
2023-05-14T14:14:53.085Z,58.38
2023-05-14T14:18:28.559Z,58.63
2023-05-14T14:22:06.390Z,58.75
2023-05-14T14:25:43.961Z,58.92
2023-05-14T14:29:24.146Z,59.02
2023-05-14T14:33:01.487Z,58.55
2023-05-14T14:36:38.283Z,58.21
2023-05-14T14:40:34.008Z,57.74
2023-05-14T14:43:52.592Z,57.76
2023-05-14T14:47:30.497Z,58.38
2023-05-14T14:51:11.642Z,59.53
2023-05-14T14:54:45.162Z,58.98
2023-05-14T14:58:24.009Z,57.81
2023-05-14T15:02:00.684Z,58.58
2023-05-14T15:05:38.494Z,58.53
2023-05-14T15:09:16.363Z,58.38
2023-05-14T15:12:54.675Z,57.06
2023-05-14T15:16:31.825Z,56.29
2023-05-14T15:20:10.616Z,56.92
2023-05-14T15:23:47.042Z,57.64
2023-05-14T15:27:24.626Z,58.19
2023-05-14T15:31:21.712Z,57.84
2023-05-14T15:35:49.367Z,56.75
2023-05-14T15:39:10.474Z,56.94
2023-05-14T15:42:44.257Z,56.44
2023-05-14T15:46:21.844Z,56.58
2023-05-14T15:49:57.995Z,56.13
2023-05-14T15:53:35.503Z,56.15
2023-05-14T15:57:14.025Z,56.23
2023-05-14T16:00:51.346Z,56.63
2023-05-14T16:04:28.710Z,56.87
2023-05-14T16:08:07.057Z,57.92
2023-05-14T16:11:43.914Z,58.28
2023-05-14T16:15:21.630Z,58.42
2023-05-14T16:18:59.604Z,58.73
2023-05-14T16:22:37.482Z,58.52
2023-05-14T16:26:14.534Z,58.26
2023-05-14T16:29:52.387Z,57.86
2023-05-14T16:33:29.999Z,58.44
2023-05-14T16:37:08.222Z,58.43
2023-05-14T16:40:45.540Z,57.87
2023-05-14T16:44:23.195Z,57.95
2023-05-14T16:48:01.567Z,58.52
2023-05-14T16:51:43.165Z,58.85
2023-05-14T16:55:16.606Z,59.39
2023-05-14T16:58:54.038Z,59.56
2023-05-14T17:02:33.268Z,59.92
2023-05-14T17:06:10.259Z,60.10
2023-05-14T17:09:46.872Z,60.40
2023-05-14T17:13:24.297Z,60.55
2023-05-14T17:17:02.456Z,60.73
2023-05-14T17:20:40.014Z,60.63
2023-05-14T17:24:17.221Z,60.31
2023-05-14T17:27:55.065Z,60.10
2023-05-14T17:31:32.849Z,59.80
2023-05-14T17:35:11.844Z,60.05
2023-05-14T17:38:48.485Z,60.38
2023-05-14T17:42:25.932Z,60.81
2023-05-14T17:46:03.993Z,61.04
2023-05-14T17:49:40.984Z,61.39
2023-05-14T17:53:19.132Z,61.46
2023-05-14T17:56:56.864Z,61.79
2023-05-14T18:00:34.683Z,62.13
2023-05-14T18:04:12.314Z,62.42
2023-05-14T18:07:49.542Z,62.67
2023-05-14T18:11:46.523Z,62.79
2023-05-14T18:15:05.135Z,63.14
2023-05-14T18:18:42.845Z,63.31
2023-05-14T18:22:21.751Z,63.66
2023-05-14T18:25:58.093Z,63.75
2023-05-14T18:29:35.452Z,63.63
2023-05-14T18:33:13.226Z,63.56
2023-05-14T18:36:51.125Z,63.96
2023-05-14T18:40:28.887Z,64.29
2023-05-14T18:44:06.404Z,64.83
2023-05-14T18:47:43.981Z,65.20
2023-05-14T18:51:21.661Z,65.15
2023-05-14T18:54:59.614Z,65.09
2023-05-14T18:58:37.093Z,65.14
2023-05-14T19:02:15.265Z,65.14
2023-05-14T19:05:53.935Z,65.16
2023-05-14T19:09:30.317Z,65.33
2023-05-14T19:13:07.918Z,65.72
2023-05-14T19:16:45.149Z,66.08
2023-05-14T19:20:23.181Z,66.31
2023-05-14T19:24:00.543Z,66.57
2023-05-14T19:27:38.942Z,66.99
2023-05-14T19:31:16.253Z,67.49
2023-05-14T19:34:53.717Z,68.21
2023-05-14T19:38:31.598Z,68.85
2023-05-14T19:42:09.198Z,69.50
2023-05-14T19:45:47.056Z,69.79
2023-05-14T19:49:24.454Z,69.51
2023-05-14T19:53:02.227Z,69.56
2023-05-14T19:56:40.552Z,69.70
2023-05-14T20:00:17.713Z,70.27
2023-05-14T20:03:55.258Z,70.77
2023-05-14T20:07:54.146Z,71.08
2023-05-14T20:11:10.192Z,70.99
2023-05-14T20:14:48.315Z,71.72
2023-05-14T20:18:26.111Z,72.05
2023-05-14T20:22:03.946Z,72.37
2023-05-14T20:25:41.660Z,72.50
2023-05-14T20:29:18.646Z,72.63
2023-05-14T20:32:56.795Z,72.86
2023-05-14T20:36:34.735Z,73.34
2023-05-14T20:40:14.485Z,73.24
2023-05-14T20:43:49.558Z,73.58
2023-05-14T20:47:30.552Z,74.24
2023-05-14T20:51:06.799Z,74.51
2023-05-14T20:54:43.223Z,74.79
2023-05-14T20:58:20.999Z,75.01
2023-05-14T21:01:58.537Z,74.89
2023-05-14T21:05:35.416Z,75.01
2023-05-14T21:09:13.499Z,74.88
2023-05-14T21:12:51.758Z,74.61
2023-05-14T21:16:28.566Z,74.12
2023-05-14T21:20:07.061Z,73.96
2023-05-14T21:24:02.963Z,74.08
2023-05-14T21:27:40.290Z,74.39
2023-05-14T21:30:59.375Z,73.60
2023-05-14T21:34:36.735Z,71.14
2023-05-14T21:38:15.040Z,70.33
2023-05-14T21:41:52.193Z,70.88
2023-05-14T21:45:29.944Z,71.37
2023-05-14T21:49:07.513Z,71.82
2023-05-14T21:52:45.560Z,72.08
2023-05-14T21:56:22.973Z,72.24
2023-05-14T22:00:00.961Z,71.43
2023-05-14T22:03:38.399Z,70.80
2023-05-14T22:07:16.330Z,70.25
2023-05-14T22:10:53.671Z,71.12
2023-05-14T22:14:31.595Z,71.02
2023-05-14T22:18:08.987Z,70.50
2023-05-14T22:21:47.042Z,69.98
2023-05-14T22:25:24.427Z,70.72
2023-05-14T22:29:02.198Z,70.96
2023-05-14T22:32:39.940Z,71.36
2023-05-14T22:36:17.618Z,71.68
2023-05-14T22:39:54.924Z,71.64
2023-05-14T22:43:32.972Z,71.66
2023-05-14T22:47:10.735Z,71.72
2023-05-14T22:50:47.980Z,71.93
2023-05-14T22:54:25.543Z,71.98
2023-05-14T22:58:04.082Z,71.94
2023-05-14T23:01:41.163Z,71.65
2023-05-14T23:05:18.720Z,71.67
2023-05-14T23:08:56.397Z,71.57
2023-05-14T23:12:34.184Z,71.50
2023-05-14T23:16:11.727Z,71.52
2023-05-14T23:19:49.589Z,71.58
2023-05-14T23:23:26.996Z,71.42
2023-05-14T23:27:05.366Z,71.60
2023-05-14T23:30:42.537Z,71.44
2023-05-14T23:34:22.180Z,71.42
2023-05-14T23:37:57.722Z,71.53
2023-05-14T23:41:35.645Z,71.54
2023-05-14T23:45:13.875Z,71.66
2023-05-14T23:48:52.371Z,71.63
2023-05-14T23:52:28.678Z,71.82
2023-05-14T23:56:06.482Z,71.72
2023-05-14T23:59:46.257Z,71.74
